createdAt,value
2018-04-23T00:01:39.830Z,2.37
2018-04-23T00:04:08.867Z,2.40
2018-04-23T00:06:37.138Z,2.73
2018-04-23T00:09:06.152Z,2.13
2018-04-23T00:11:34.439Z,2.50
2018-04-23T00:14:03.508Z,2.53
2018-04-23T00:16:33.472Z,2.60
2018-04-23T00:19:02.508Z,2.47
2018-04-23T00:21:31.309Z,2.40
2018-04-23T00:23:59.690Z,2.23
2018-04-23T00:26:27.949Z,2.53
2018-04-23T00:28:56.970Z,2.60
2018-04-23T00:31:25.265Z,2.53
2018-04-23T00:33:54.281Z,2.40
2018-04-23T00:36:22.519Z,2.70
2018-04-23T00:38:50.790Z,2.53
2018-04-23T00:41:19.039Z,2.40
2018-04-23T00:43:47.325Z,2.57
2018-04-23T00:46:15.569Z,2.17
2018-04-23T00:48:43.855Z,2.57
2018-04-23T00:51:12.847Z,2.77
2018-04-23T00:53:41.148Z,2.50
2018-04-23T00:56:09.390Z,2.53
2018-04-23T00:58:37.655Z,2.43
2018-04-23T01:01:06.796Z,2.27
2018-04-23T01:03:35.073Z,2.63
2018-04-23T01:06:04.167Z,2.40
2018-04-23T01:08:33.770Z,2.30
2018-04-23T01:11:02.154Z,2.50
2018-04-23T01:13:30.401Z,2.57
2018-04-23T01:15:59.398Z,2.37
2018-04-23T01:18:27.657Z,2.17
2018-04-23T01:20:56.656Z,2.50
2018-04-23T01:23:25.706Z,2.47
2018-04-23T01:25:53.932Z,2.47
2018-04-23T01:28:22.187Z,2.30
2018-04-23T01:30:50.460Z,2.23
2018-04-23T01:33:18.700Z,2.00
2018-04-23T01:35:46.960Z,3.60
2018-04-23T01:38:15.244Z,2.70
2018-04-23T01:40:43.508Z,2.90
2018-04-23T01:43:12.507Z,2.53
2018-04-23T01:45:41.528Z,2.10
2018-04-23T01:48:09.802Z,2.70
2018-04-23T01:50:38.907Z,2.33
2018-04-23T01:53:08.023Z,2.60
2018-04-23T01:55:36.312Z,2.20
2018-04-23T01:58:05.314Z,2.40
2018-04-23T02:00:34.351Z,2.43
2018-04-23T02:03:02.620Z,2.50
2018-04-23T02:05:30.889Z,2.50
2018-04-23T02:07:59.183Z,2.53
2018-04-23T02:10:28.203Z,2.60
2018-04-23T02:12:56.448Z,2.57
2018-04-23T02:15:26.215Z,2.40
2018-04-23T02:17:55.334Z,2.70
2018-04-23T02:20:23.714Z,2.40
2018-04-23T02:22:53.312Z,2.70
2018-04-23T02:25:21.565Z,2.30
2018-04-23T02:27:49.803Z,2.70
2018-04-23T02:30:18.098Z,2.37
2018-04-23T02:32:47.482Z,2.90
2018-04-23T02:35:15.749Z,2.43
2018-04-23T02:37:44.091Z,2.47
2018-04-23T02:40:13.132Z,2.73
2018-04-23T02:42:41.382Z,2.33
2018-04-23T02:45:10.400Z,2.57
2018-04-23T02:47:39.432Z,2.80
2018-04-23T02:50:07.672Z,2.70
2018-04-23T02:52:35.937Z,2.40
2018-04-23T02:55:04.213Z,2.20
2018-04-23T02:57:32.491Z,2.50
2018-04-23T03:00:00.778Z,2.00
2018-04-23T03:02:29.042Z,2.43
2018-04-23T03:04:57.287Z,2.40
2018-04-23T03:07:25.542Z,2.53
2018-04-23T03:09:53.770Z,2.00
2018-04-23T03:12:22.033Z,2.70
2018-04-23T03:14:50.272Z,2.30
2018-04-23T03:17:19.312Z,2.20
2018-04-23T03:19:47.543Z,2.87
2018-04-23T03:22:15.824Z,2.20
2018-04-23T03:24:44.057Z,2.80
2018-04-23T03:27:12.328Z,3.23
2018-04-23T03:29:41.334Z,2.37
2018-04-23T03:32:10.376Z,2.77
2018-04-23T03:34:38.656Z,2.83
2018-04-23T03:37:06.944Z,2.30
2018-04-23T03:39:35.193Z,2.20
2018-04-23T03:42:03.462Z,2.40
2018-04-23T03:44:31.718Z,2.60
2018-04-23T03:47:00.760Z,2.57
2018-04-23T03:49:29.013Z,2.30
2018-04-23T03:51:57.311Z,3.53
2018-04-23T03:54:25.559Z,2.60
2018-04-23T03:56:54.590Z,2.30
2018-04-23T03:59:22.837Z,2.70
2018-04-23T04:01:51.156Z,2.77
2018-04-23T04:04:20.168Z,2.60
2018-04-23T04:06:49.617Z,2.87
2018-04-23T04:09:17.920Z,2.30
2018-04-23T04:11:46.168Z,2.77
2018-04-23T04:14:33.083Z,2.70
2018-04-23T04:17:02.110Z,2.30
2018-04-23T04:19:30.369Z,2.73
2018-04-23T04:21:59.402Z,2.70
2018-04-23T04:24:27.745Z,2.60
2018-04-23T04:26:56.062Z,3.10
2018-04-23T04:29:25.218Z,2.90
2018-04-23T04:31:53.456Z,2.60
2018-04-23T04:34:22.495Z,2.70
2018-04-23T04:36:51.862Z,2.90
2018-04-23T04:39:20.195Z,2.87
2018-04-23T04:41:49.195Z,2.60
2018-04-23T04:44:17.449Z,2.40
2018-04-23T04:46:45.751Z,2.57
2018-04-23T04:49:14.793Z,2.80
2018-04-23T04:51:43.017Z,2.53
2018-04-23T04:54:11.343Z,3.00
2018-04-23T04:56:40.363Z,2.50
2018-04-23T04:59:08.686Z,2.83
2018-04-23T05:01:36.949Z,2.87
2018-04-23T05:04:05.232Z,2.60
2018-04-23T05:06:34.263Z,2.53
2018-04-23T05:09:02.606Z,2.40
2018-04-23T05:11:30.936Z,2.90
2018-04-23T05:13:59.242Z,2.67
2018-04-23T05:16:27.488Z,2.70
2018-04-23T05:18:56.547Z,2.73
2018-04-23T05:21:24.886Z,2.50
2018-04-23T05:23:53.960Z,3.00
2018-04-23T05:26:22.144Z,2.60
2018-04-23T05:28:50.424Z,2.57
2018-04-23T05:31:18.682Z,2.67
2018-04-23T05:33:46.922Z,2.50
2018-04-23T05:36:15.168Z,2.70
2018-04-23T05:38:43.414Z,2.83
2018-04-23T05:41:11.668Z,3.10
2018-04-23T05:43:39.956Z,2.47
2018-04-23T05:46:08.208Z,2.47
2018-04-23T05:48:36.439Z,2.90
2018-04-23T05:51:04.702Z,2.83
2018-04-23T05:53:32.958Z,2.60
2018-04-23T05:56:01.977Z,2.70
2018-04-23T05:58:30.269Z,2.57
2018-04-23T06:00:59.201Z,2.50
2018-04-23T06:03:27.439Z,2.97
2018-04-23T06:05:56.464Z,2.73
2018-04-23T06:08:24.694Z,2.90
2018-04-23T06:10:52.971Z,2.87
2018-04-23T06:13:21.327Z,3.07
2018-04-23T06:15:49.591Z,2.90
2018-04-23T06:18:17.843Z,3.10
2018-04-23T06:20:46.119Z,2.50
2018-04-23T06:23:14.366Z,2.80
2018-04-23T06:25:43.398Z,3.23
2018-04-23T06:28:11.670Z,3.20
2018-04-23T06:30:39.889Z,2.70
2018-04-23T06:33:08.141Z,2.90
2018-04-23T06:35:37.916Z,3.20
2018-04-23T06:38:06.145Z,3.10
2018-04-23T06:40:35.191Z,3.13
2018-04-23T06:43:03.556Z,3.10
2018-04-23T06:45:32.604Z,2.77
2018-04-23T06:48:00.865Z,2.90
2018-04-23T06:50:29.912Z,2.90
2018-04-23T06:52:58.164Z,3.00
2018-04-23T06:55:26.413Z,2.70
2018-04-23T06:57:54.673Z,3.03
2018-04-23T07:00:22.943Z,3.53
2018-04-23T07:02:51.211Z,2.97
2018-04-23T07:05:19.516Z,3.27
2018-04-23T07:07:47.901Z,3.23
2018-04-23T07:10:16.168Z,3.60
2018-04-23T07:12:44.469Z,3.10
2018-04-23T07:15:12.706Z,3.10
2018-04-23T07:17:41.042Z,3.67
2018-04-23T07:20:10.091Z,3.97
2018-04-23T07:22:38.369Z,3.07
2018-04-23T07:25:06.613Z,3.50
2018-04-23T07:27:36.278Z,3.57
2018-04-23T07:30:04.593Z,3.40
2018-04-23T07:32:33.697Z,3.30
2018-04-23T07:35:02.032Z,3.17
2018-04-23T07:37:30.380Z,3.40
2018-04-23T07:39:58.631Z,3.23
2018-04-23T07:42:27.746Z,4.27
2018-04-23T07:44:56.760Z,4.80
2018-04-23T07:47:25.259Z,3.93
2018-04-23T07:49:54.361Z,4.93
2018-04-23T07:52:22.661Z,4.37
2018-04-23T07:54:50.909Z,5.53
2018-04-23T07:57:19.342Z,4.20
2018-04-23T07:59:47.757Z,5.03
2018-04-23T08:02:16.162Z,4.40
2018-04-23T08:04:44.504Z,3.60
2018-04-23T08:07:13.402Z,4.67
2018-04-23T08:09:42.419Z,4.63
2018-04-23T08:12:10.703Z,3.67
2018-04-23T08:14:38.947Z,3.70
2018-04-23T08:17:07.232Z,3.57
2018-04-23T08:19:35.559Z,3.70
2018-04-23T08:22:04.610Z,2.93
2018-04-23T08:24:32.940Z,3.13
2018-04-23T08:27:02.000Z,2.53
2018-04-23T08:29:30.263Z,3.30
2018-04-23T08:31:59.910Z,2.57
2018-04-23T08:34:28.952Z,2.57
2018-04-23T08:36:57.207Z,3.30
2018-04-23T08:39:25.545Z,3.53
2018-04-23T08:41:53.825Z,2.63
2018-04-23T08:44:22.208Z,2.90
2018-04-23T08:46:50.555Z,2.63
2018-04-23T08:49:18.827Z,2.80
2018-04-23T08:51:48.212Z,2.70
2018-04-23T08:54:16.484Z,2.80
2018-04-23T08:56:44.724Z,2.50
2018-04-23T08:59:13.738Z,2.80
2018-04-23T09:01:41.966Z,2.57
2018-04-23T09:04:10.231Z,2.60
2018-04-23T09:06:39.814Z,2.40
2018-04-23T09:09:08.846Z,2.53
2018-04-23T09:11:37.838Z,2.20
2018-04-23T09:14:06.937Z,2.17
2018-04-23T09:16:35.980Z,2.00
2018-04-23T09:19:04.320Z,1.97
2018-04-23T09:21:32.565Z,1.97
2018-04-23T09:24:00.877Z,2.30
2018-04-23T09:26:29.134Z,1.90
2018-04-23T09:28:57.403Z,1.90
2018-04-23T09:31:26.412Z,1.53
2018-04-23T09:33:55.460Z,1.47
2018-04-23T09:36:23.786Z,1.50
2018-04-23T09:38:52.800Z,1.63
2018-04-23T09:41:21.874Z,2.17
2018-04-23T09:43:50.163Z,3.13
2018-04-23T09:46:18.431Z,2.20
2018-04-23T09:48:46.694Z,2.43
2018-04-23T09:51:15.768Z,1.40
2018-04-23T09:53:44.051Z,1.60
2018-04-23T09:56:12.366Z,1.70
2018-04-23T09:58:41.390Z,1.60
2018-04-23T10:01:16.045Z,1.60
2018-04-23T10:03:44.300Z,1.50
2018-04-23T10:06:12.614Z,1.77
2018-04-23T10:08:40.877Z,2.00
2018-04-23T10:11:09.141Z,1.80
2018-04-23T10:13:37.403Z,2.13
2018-04-23T10:16:05.718Z,2.80
2018-04-23T10:18:34.103Z,2.30
2018-04-23T10:21:02.438Z,2.80
2018-04-23T10:23:30.673Z,2.50
2018-04-23T10:25:58.935Z,2.70
2018-04-23T10:28:27.199Z,2.67
2018-04-23T10:30:56.263Z,2.50
2018-04-23T10:33:25.327Z,2.13
2018-04-23T10:35:54.419Z,2.47
2018-04-23T10:38:23.441Z,2.87
2018-04-23T10:40:53.181Z,3.20
2018-04-23T10:43:22.967Z,2.67
2018-04-23T10:45:52.741Z,2.40
2018-04-23T10:48:20.999Z,2.73
2018-04-23T10:50:50.054Z,2.80
2018-04-23T10:53:18.394Z,2.80
2018-04-23T10:55:46.757Z,2.83
2018-04-23T10:58:15.074Z,2.70
2018-04-23T11:00:44.121Z,3.53
2018-04-23T11:03:12.363Z,2.80
2018-04-23T11:05:41.403Z,2.50
2018-04-23T11:08:09.662Z,2.93
2018-04-23T11:10:37.950Z,2.73
2018-04-23T11:13:06.203Z,2.70
2018-04-23T11:15:34.496Z,3.17
2018-04-23T11:18:02.763Z,2.60
2018-04-23T11:20:31.051Z,3.17
2018-04-23T11:22:59.322Z,4.03
2018-04-23T11:25:28.948Z,2.70
2018-04-23T11:27:57.236Z,3.30
2018-04-23T11:30:25.525Z,2.40
2018-04-23T11:32:53.883Z,3.13
2018-04-23T11:35:22.141Z,2.60
2018-04-23T11:37:50.414Z,2.63
2018-04-23T11:40:18.761Z,2.80
2018-04-23T11:42:47.795Z,2.80
2018-04-23T11:45:16.058Z,3.00
2018-04-23T11:47:44.330Z,2.97
2018-04-23T11:50:14.106Z,3.47
2018-04-23T11:52:42.374Z,3.37
2018-04-23T11:55:11.473Z,3.80
2018-04-23T11:57:40.495Z,2.93
2018-04-23T12:00:08.745Z,3.07
2018-04-23T12:02:37.018Z,3.50
2018-04-23T12:05:05.268Z,3.30
2018-04-23T12:07:33.559Z,3.53
2018-04-23T12:10:01.820Z,3.57
2018-04-23T12:12:30.098Z,3.10
2018-04-23T12:14:59.619Z,4.00
2018-04-23T12:17:27.879Z,3.70
2018-04-23T12:19:56.229Z,3.70
2018-04-23T12:22:24.675Z,3.70
2018-04-23T12:24:52.979Z,3.90
2018-04-23T12:27:22.060Z,3.63
2018-04-23T12:29:50.327Z,4.60
2018-04-23T12:32:18.629Z,3.40
2018-04-23T12:34:46.919Z,3.67
2018-04-23T12:37:15.471Z,4.10
2018-04-23T12:39:43.779Z,4.30
2018-04-23T12:42:11.996Z,3.87
2018-04-23T12:44:40.270Z,4.07
2018-04-23T12:47:08.563Z,3.70
2018-04-23T12:49:36.831Z,3.90
2018-04-23T12:52:05.177Z,4.00
2018-04-23T12:54:33.448Z,3.87
2018-04-23T12:57:01.727Z,4.30
2018-04-23T12:59:30.026Z,4.10
2018-04-23T13:01:58.363Z,3.57
2018-04-23T13:04:26.684Z,4.37
2018-04-23T13:06:54.925Z,3.80
2018-04-23T13:09:23.228Z,4.00
2018-04-23T13:11:52.266Z,4.03
2018-04-23T13:14:20.531Z,4.37
2018-04-23T13:16:49.532Z,4.20
2018-04-23T13:19:17.811Z,4.10
2018-04-23T13:21:46.843Z,3.50
2018-04-23T13:24:15.195Z,4.00
2018-04-23T13:26:43.467Z,3.73
2018-04-23T13:29:12.503Z,3.70
2018-04-23T13:31:40.768Z,3.40
2018-04-23T13:34:09.081Z,3.47
2018-04-23T13:36:38.092Z,3.60
2018-04-23T13:39:07.132Z,3.30
2018-04-23T13:41:35.417Z,4.30
2018-04-23T13:44:03.747Z,3.50
2018-04-23T13:46:32.028Z,3.90
2018-04-23T13:49:00.349Z,3.50
2018-04-23T13:51:28.619Z,3.23
2018-04-23T13:53:57.738Z,3.30
2018-04-23T13:56:26.186Z,3.27
2018-04-23T13:58:54.556Z,3.10
2018-04-23T14:01:22.852Z,2.80
2018-04-23T14:03:51.118Z,2.70
2018-04-23T14:06:20.151Z,3.43
2018-04-23T14:08:48.427Z,2.97
2018-04-23T14:11:17.624Z,3.30
2018-04-23T14:13:46.638Z,3.20
2018-04-23T14:16:15.677Z,3.10
2018-04-23T14:18:43.927Z,3.00
2018-04-23T14:21:12.991Z,3.23
2018-04-23T14:23:41.249Z,3.13
2018-04-23T14:26:09.526Z,2.70
2018-04-23T14:28:37.936Z,3.43
2018-04-23T14:31:06.216Z,3.07
2018-04-23T14:33:34.470Z,3.53
2018-04-23T14:36:03.753Z,3.43
2018-04-23T14:38:32.067Z,3.57
2018-04-23T14:41:00.500Z,3.67
2018-04-23T14:43:28.813Z,3.47
2018-04-23T14:45:57.083Z,3.87
2018-04-23T14:48:25.479Z,3.47
2018-04-23T14:50:53.779Z,3.57
2018-04-23T14:53:22.055Z,3.60
2018-04-23T14:55:50.313Z,2.63
2018-04-23T14:58:19.358Z,3.57
2018-04-23T15:00:47.633Z,3.90
2018-04-23T15:03:15.947Z,4.13
2018-04-23T15:05:44.205Z,3.53
2018-04-23T15:08:12.458Z,3.50
2018-04-23T15:10:40.811Z,3.90
2018-04-23T15:13:09.105Z,4.13
2018-04-23T15:15:37.384Z,3.80
2018-04-23T15:18:05.658Z,4.07
2018-04-23T15:20:33.997Z,4.03
2018-04-23T15:23:02.307Z,4.00
2018-04-23T15:25:30.662Z,4.50
2018-04-23T15:27:58.931Z,4.33
2018-04-23T15:30:27.210Z,3.83
2018-04-23T15:32:55.512Z,3.53
2018-04-23T15:35:23.775Z,3.73
2018-04-23T15:37:52.880Z,4.80
2018-04-23T15:40:21.904Z,4.40
2018-04-23T15:42:50.171Z,3.77
2018-04-23T15:45:19.222Z,3.77
2018-04-23T15:47:47.522Z,4.37
2018-04-23T15:50:15.787Z,4.37
2018-04-23T15:52:44.162Z,3.53
2018-04-23T15:55:12.483Z,3.40
2018-04-23T15:57:40.789Z,3.73
2018-04-23T16:00:09.130Z,3.93
2018-04-23T16:02:37.553Z,3.00
2018-04-23T16:05:05.832Z,3.00
2018-04-23T16:07:34.177Z,3.63
2018-04-23T16:10:03.251Z,3.03
2018-04-23T16:12:32.319Z,2.90
2018-04-23T16:15:01.454Z,3.00
2018-04-23T16:17:30.525Z,2.57
2018-04-23T16:19:59.829Z,3.43
2018-04-23T16:22:28.099Z,3.00
2018-04-23T16:24:56.400Z,2.87
2018-04-23T16:27:24.683Z,2.97
2018-04-23T16:29:53.006Z,3.10
2018-04-23T16:32:22.056Z,3.07
2018-04-23T16:34:50.318Z,2.77
2018-04-23T16:37:18.609Z,2.40
2018-04-23T16:39:46.922Z,2.83
2018-04-23T16:42:15.207Z,2.60
2018-04-23T16:44:43.448Z,3.10
2018-04-23T16:47:13.065Z,2.20
2018-04-23T16:49:42.208Z,2.73
2018-04-23T16:52:10.500Z,2.37
2018-04-23T16:54:38.926Z,2.60
2018-04-23T16:57:07.174Z,2.47
2018-04-23T16:59:35.495Z,3.20
2018-04-23T17:02:03.760Z,2.87
2018-04-23T17:04:32.061Z,3.00
2018-04-23T17:07:00.348Z,2.93
2018-04-23T17:09:28.672Z,3.70
2018-04-23T17:11:56.932Z,3.00
2018-04-23T17:14:25.237Z,2.80
2018-04-23T17:16:53.572Z,3.30
2018-04-23T17:19:21.946Z,3.40
2018-04-23T17:21:50.200Z,3.00
2018-04-23T17:24:18.695Z,2.97
2018-04-23T17:26:48.160Z,2.70
2018-04-23T17:29:16.435Z,3.37
2018-04-23T17:31:44.691Z,3.27
2018-04-23T17:34:12.964Z,3.20
2018-04-23T17:36:41.406Z,3.00
2018-04-23T17:39:10.449Z,3.40
2018-04-23T17:41:39.159Z,3.40
2018-04-23T17:44:08.171Z,3.70
2018-04-23T17:46:36.422Z,3.83
2018-04-23T17:49:05.589Z,3.70
2018-04-23T17:51:33.855Z,3.63
2018-04-23T17:54:02.161Z,3.77
2018-04-23T17:56:30.427Z,3.40
2018-04-23T17:58:58.787Z,4.17
2018-04-23T18:01:27.081Z,3.80
2018-04-23T18:03:56.695Z,3.63
2018-04-23T18:06:25.259Z,3.30
2018-04-23T18:08:53.535Z,3.50
2018-04-23T18:11:21.805Z,3.37
2018-04-23T18:13:50.860Z,3.83
2018-04-23T18:16:19.136Z,3.23
2018-04-23T18:18:47.450Z,3.53
2018-04-23T18:21:15.723Z,4.33
2018-04-23T18:23:44.017Z,3.53
2018-04-23T18:26:12.262Z,3.70
2018-04-23T18:28:42.064Z,3.70
2018-04-23T18:31:11.115Z,3.30
2018-04-23T18:33:39.417Z,4.10
2018-04-23T18:36:07.900Z,3.80
2018-04-23T18:38:36.181Z,3.53
2018-04-23T18:41:04.454Z,4.63
2018-04-23T18:43:32.753Z,3.17
2018-04-23T18:46:01.053Z,3.50
2018-04-23T18:48:29.336Z,3.67
2018-04-23T18:50:57.715Z,3.57
2018-04-23T18:53:25.993Z,4.03
2018-04-23T18:55:54.308Z,3.43
2018-04-23T18:58:22.583Z,4.20
2018-04-23T19:00:50.862Z,4.83
2018-04-23T19:03:19.122Z,4.00
2018-04-23T19:05:47.419Z,3.80
2018-04-23T19:08:15.735Z,3.43
2018-04-23T19:10:44.025Z,4.17
2018-04-23T19:13:12.286Z,4.30
2018-04-23T19:15:41.332Z,3.63
2018-04-23T19:18:09.592Z,3.73
2018-04-23T19:20:38.649Z,3.87
2018-04-23T19:23:06.919Z,3.90
2018-04-23T19:25:35.232Z,3.90
2018-04-23T19:28:03.523Z,3.67
2018-04-23T19:30:31.810Z,4.33
2018-04-23T19:33:01.019Z,3.93
2018-04-23T19:35:29.775Z,4.40
2018-04-23T19:37:59.442Z,4.13
2018-04-23T19:40:27.652Z,3.53
2018-04-23T19:42:55.939Z,3.70
2018-04-23T19:45:24.240Z,4.23
2018-04-23T19:47:53.377Z,3.90
2018-04-23T19:50:21.640Z,3.90
2018-04-23T19:52:50.708Z,3.87
2018-04-23T19:55:19.040Z,4.00
2018-04-23T19:57:47.279Z,3.70
2018-04-23T20:00:15.531Z,3.77
2018-04-23T20:02:44.606Z,3.77
2018-04-23T20:05:13.604Z,3.57
2018-04-23T20:07:42.679Z,4.50
2018-04-23T20:10:11.010Z,4.97
2018-04-23T20:12:39.287Z,3.93
2018-04-23T20:15:08.311Z,3.20
2018-04-23T20:17:36.588Z,3.87
2018-04-23T20:20:04.850Z,4.17
2018-04-23T20:22:33.156Z,4.20
2018-04-23T20:25:01.489Z,3.90
2018-04-23T20:27:29.834Z,4.23
2018-04-23T20:29:58.095Z,4.00
2018-04-23T20:32:26.384Z,3.93
2018-04-23T20:34:54.648Z,4.10
2018-04-23T20:37:23.707Z,3.63
2018-04-23T20:39:51.995Z,4.73
2018-04-23T20:42:20.307Z,3.70
2018-04-23T20:44:48.573Z,4.03
2018-04-23T20:47:17.296Z,4.53
2018-04-23T20:49:45.604Z,3.73
2018-04-23T20:52:13.883Z,4.17
2018-04-23T20:54:42.160Z,4.77
2018-04-23T20:57:10.430Z,3.70
2018-04-23T20:59:38.698Z,3.67
2018-04-23T21:02:06.975Z,3.90
2018-04-23T21:04:36.015Z,4.20
2018-04-23T21:07:04.309Z,3.47
2018-04-23T21:09:32.576Z,3.30
2018-04-23T21:12:00.841Z,4.00
2018-04-23T21:14:29.931Z,3.53
2018-04-23T21:16:58.196Z,3.87
2018-04-23T21:19:26.449Z,3.77
2018-04-23T21:21:54.704Z,3.70
2018-04-23T21:24:24.113Z,3.87
2018-04-23T21:26:53.712Z,4.40
2018-04-23T21:29:22.032Z,3.87
2018-04-23T21:31:50.300Z,3.37
2018-04-23T21:34:18.588Z,3.40
2018-04-23T21:36:47.778Z,4.47
2018-04-23T21:39:16.031Z,3.87
2018-04-23T21:41:45.049Z,3.87
2018-04-23T21:44:13.311Z,3.80
2018-04-23T21:46:42.488Z,4.33
2018-04-23T21:49:10.731Z,3.73
2018-04-23T21:51:38.910Z,3.67
2018-04-23T21:54:07.928Z,4.07
2018-04-23T21:56:36.173Z,4.57
2018-04-23T21:59:04.617Z,3.97
2018-04-23T22:01:33.649Z,4.23
2018-04-23T22:04:01.921Z,4.47
2018-04-23T22:06:30.167Z,4.00
2018-04-23T22:08:59.199Z,3.90
2018-04-23T22:11:27.431Z,4.47
2018-04-23T22:13:55.688Z,3.50
2018-04-23T22:16:25.303Z,3.97
2018-04-23T22:18:53.582Z,3.60
2018-04-23T22:21:21.880Z,3.57
2018-04-23T22:23:50.135Z,3.70
2018-04-23T22:26:18.390Z,3.30
2018-04-23T22:28:47.604Z,3.57
2018-04-23T22:31:15.854Z,3.80
2018-04-23T22:33:44.273Z,4.43
2018-04-23T22:36:12.508Z,3.83
2018-04-23T22:38:41.531Z,4.50
2018-04-23T22:41:10.567Z,4.27
2018-04-23T22:43:38.815Z,3.60
2018-04-23T22:46:07.833Z,4.50
2018-04-23T22:48:36.847Z,4.43
2018-04-23T22:51:05.869Z,4.10
2018-04-23T22:53:34.131Z,4.30
2018-04-23T22:56:03.211Z,4.00
2018-04-23T22:58:31.539Z,4.07
2018-04-23T23:00:59.769Z,4.10
2018-04-23T23:03:28.012Z,3.93
2018-04-23T23:05:56.276Z,4.67
2018-04-23T23:08:24.581Z,3.97
2018-04-23T23:10:53.607Z,4.00
2018-04-23T23:13:23.201Z,3.93
2018-04-23T23:15:52.232Z,3.80
2018-04-23T23:18:20.458Z,4.30
2018-04-23T23:20:48.744Z,4.00
2018-04-23T23:23:16.995Z,3.93
2018-04-23T23:25:45.256Z,4.00
2018-04-23T23:28:13.494Z,4.13
2018-04-23T23:30:41.742Z,5.00
2018-04-23T23:33:10.748Z,4.17
2018-04-23T23:35:39.772Z,3.83
2018-04-23T23:38:08.009Z,4.07
2018-04-23T23:40:36.271Z,4.63
2018-04-23T23:43:05.285Z,4.27
2018-04-23T23:45:33.548Z,4.37
2018-04-23T23:48:02.770Z,4.30
2018-04-23T23:50:31.036Z,4.60
2018-04-23T23:53:00.039Z,4.10
2018-04-23T23:55:29.066Z,4.77
2018-04-23T23:57:57.306Z,4.43
